Monday, April 24, 2017, 10:48 PM EDT

KSBY, Salisbury-wicomico Cty Reg

Location: Salisbury, MD, United States Lat: 38.333
Local Time: 10:48 PM EDT ( 2:48 GMT) Lon: -75.5
Time Zone: US/Eastern Elev: 52 ft

Show me the last for .
Show Decoded

2017-04-24 22:38 METAR KSBY 250238Z AUTO 06016G23KT 3SM -RA BR OVC004 12/12 A2997 =
2017-04-24 21:54 METAR KSBY 250154Z AUTO 07013G23KT 6SM BR OVC005 12/12 A2998 RMK AO2 RAB20E53
                 SLP155 P0000 T01220122 $ =
2017-04-24 20:54 METAR KSBY 250054Z 05014G21KT 7SM OVC007 12/12 A2998 RMK AO2 RAE08 SLP153 P0000
                 T01220117 $ =
2017-04-24 19:54 METAR KSBY 242354Z 06013KT 3SM +RA BR OVC007 12/12 A2998 RMK AO2 RAB27 SLP155
                 P0004 60008 T01220117 10128 20117 58002 $ =
2017-04-24 18:54 METAR KSBY 242254Z 05011G19KT 360V060 10SM OVC006 12/12 A2999 RMK AO2 RAE41
                 SLP156 P0002 T01170117 $ =
2017-04-24 17:54 METAR KSBY 242154Z 06014KT 10SM -RA OVC006 12/12 A2999 RMK AO2 CIG 004V010
                 SLP157 P0001 T01170117 $ =
2017-04-24 17:43 METAR KSBY 242143Z 05016G22KT 4SM -RA BR OVC006 12/12 A2998 RMK AO2 CIG 004V010
                 P0001 T01170117 $ =
2017-04-24 17:21 METAR KSBY 242121Z 05014G19KT 2 1/2SM -RA BR OVC006 12/12 A2998 RMK AO2 P0001
                 T01170117 $ =
2017-04-24 17:07 METAR KSBY 242107Z 05011KT 1 3/4SM -RA BR OVC006 12/12 A2998 RMK AO2 P0000
                 T01220122 $ =
2017-04-24 16:54 METAR KSBY 242054Z 05013G19KT 3SM -RA BR OVC007 12/12 A2999 RMK AO2 RAE13B30 CIG
                 005V009 SLP156 P0001 60001 T01220117 55015 $ =
2017-04-24 16:37 METAR KSBY 242037Z 05013KT 4SM -RA BR BKN008 OVC013 12/12 A2998 =
2017-04-24 16:25 METAR KSBY 242025Z 05010G18KT 7SM OVC013 12/11 A2999 RMK AO2 RAE13 P0000
                 T01220111 $ =
2017-04-24 15:54 METAR KSBY 241954Z 05015G20KT 10SM -RA OVC017 12/11 A2999 RMK AO2 RAE04B50
                 SLP156 P0000 T01220106 $ =
2017-04-24 14:54 METAR KSBY 241854Z 07015KT 10SM -RA OVC021 12/11 A3002 RMK AO2 SLP166 P0000
                 T01220106 $ =
2017-04-24 13:54 METAR KSBY 241754Z 07012KT 7SM -RA FEW012 BKN024 OVC030 12/11 A3003 RMK AO2
                 SLP171 P0001 60010 T01220111 10139 20111 58007 $ =
2017-04-24 12:54 METAR KSBY 241654Z 07019G22KT 10SM -RA SCT011 OVC029 12/11 A3004 =
2017-04-24 12:42 METAR KSBY 241642Z 06018KT 10SM -RA SCT011 BKN029 OVC036 12/12 A3004 RMK AO2
                 RAE08B17 P0000 T01220117 $ =
2017-04-24 12:12 METAR KSBY 241612Z 05015G20KT 10SM SCT013 BKN038 OVC070 12/12 A3004 RMK AO2
                 RAE08 P0000 T01220117 $ =
2017-04-24 12:01 METAR KSBY 241601Z 05016KT 10SM -RA SCT011 BKN021 OVC095 12/12 A3005 RMK AO2
                 P0000 T01220117 $ =
2017-04-24 11:54 METAR KSBY 241554Z 05014G20KT 8SM -RA SCT017 BKN050 OVC085 12/12 A3005 RMK AO2
                 SLP178 P0009 T01220117 $ =
2017-04-24 10:54 METAR KSBY 241454Z 06016G21KT 5SM -RA BR BKN017 OVC033 13/12 A3005 RMK AO2 RAB33
                 SLP179 P0000 60000 T01280117 58001 $ =
2017-04-24 10:38 METAR KSBY 241438Z 06016G19KT 5SM -RA BR OVC018 13/12 A3006 RMK AO2 RAB33 P0000
                 T01330117 $ =
2017-04-24 09:54 METAR KSBY 241354Z 05012KT 10SM FEW016 OVC036 14/12 A3006 RMK AO2 SLP179
                 T01390117 $ =
2017-04-24 08:54 METAR KSBY 241254Z 04011KT 10SM FEW014 BKN038 OVC048 12/11 A3006 RMK AO2 SLP180
                 T01220106 $ =
2017-04-24 07:54 METAR KSBY 241154Z 05010KT 10SM BKN032 BKN047 OVC075 11/10 A3006 RMK AO2 SLP180
                 60004 70005 T01110100 10111 20094 53006 $ =
2017-04-24 06:54 METAR KSBY 241054Z 05010KT 10SM OVC048 10/09 A3004 RMK AO2 RAE06 SLP173 P0000
                 T01000094 $ =
2017-04-24 05:54 METAR KSBY 240954Z 06010KT 8SM -RA OVC060 09/08 A3004 RMK AO2 RAB15 SLP174 P0004
                 T00940083 =
2017-04-24 04:54 METAR KSBY 240854Z AUTO 05012KT 10SM OVC065 10/08 A3004 RMK AO2 RAE03B34E45
                 SLP174 P0000 60000 T01000083 56009 =
2017-04-24 03:54 METAR KSBY 240754Z AUTO 05008KT 10SM -RA OVC070 10/09 A3004 RMK AO2 RAE13B36
                 SLP175 P0000 T01000094 =
2017-04-24 02:54 METAR KSBY 240654Z AUTO 05006KT 10SM -RA BKN075 OVC090 10/09 A3006 RMK AO2
                 RAB06E27B45 SLP179 P0000 T01000094 =
2017-04-24 01:54 METAR KSBY 240554Z AUTO 05005KT 10SM BKN080 OVC100 10/09 A3007 RMK AO2 RAB34E51
                 SLP183 P0000 60001 T01000094 10111 20100 58014 =
2017-04-24 00:54 METAR KSBY 240454Z AUTO 03004KT 10SM OVC090 10/09 A3009 RMK AO2 RAE38 SLP190
                 P0001 T01000094 401610089 =
2017-04-23 23:54 METAR KSBY 240354Z AUTO 06004KT 10SM -RA OVC110 10/09 A3010 RMK AO2 SLP193 P0000
                 T01000094 =
2017-04-23 22:54 METAR KSBY 240254Z AUTO 07004KT 10SM -RA OVC100 10/09 A3011 RMK AO2 RAB49 SLP197
                 P0000 60000 T01000089 50002 =

Support USWX by starting your Amazon purchase here.